Time;durP1;ratioP1;P1;durP2;ratioP2;P2;SDS_P1;SDS_P2;PMS_P1;PMS_P2;Temp;Humidity;BMP_temperature;BMP_pressure;BME280_temperature;BME280_humidity;BME280_pressure;Samples;Min_cycle;Max_cycle;Signal;HPM_P1;HPM_P2
2021/07/21 00:00:23;;;;;;;1999.90;999.90;;;;;;;16.82;72.27;101580.66;15647295;28;20041;-64
2021/07/21 00:08:01;;;;;;;1999.90;999.90;;;;;;;16.65;72.59;101578.88;15670862;28;20114;-65
2021/07/21 00:15:40;;;;;;;1999.90;999.90;;;;;;;16.61;72.87;101583.59;15687632;28;20045;-65
2021/07/21 00:23:27;;;;;;;;;;;;;;;;;;;;;
2021/07/21 00:40:15;;;;;;;1999.90;999.90;;;;;;;16.42;72.83;101583.34;15666446;28;20103;-65
2021/07/21 00:47:50;;;;;;;1999.90;999.90;;;;;;;16.27;73.34;101579.25;15668410;28;20033;-64
2021/07/21 00:55:27;;;;;;;1999.90;999.90;;;;;;;16.27;73.28;101573.63;15668430;28;20064;-65
2021/07/21 01:03:05;;;;;;;1999.90;999.90;;;;;;;16.26;73.10;101577.59;15667886;28;20091;-64
2021/07/21 01:11:06;;;;;;;1999.90;999.90;;;;;;;16.26;72.89;101579.59;15667664;28;20052;-64
2021/07/21 01:18:55;;;;;;;1999.90;999.90;;;;;;;16.22;72.79;101582.28;15626915;28;20056;-63
2021/07/21 01:26:42;;;;;;;1999.90;999.90;;;;;;;16.11;73.63;101578.28;15610094;28;20037;-64
2021/07/21 01:34:22;;;;;;;1999.90;999.90;;;;;;;16.05;73.86;101574.06;15685018;28;20053;-65
2021/07/21 01:42:08;;;;;;;1999.90;999.90;;;;;;;15.94;74.17;101576.47;15684144;28;20052;-65
2021/07/21 01:49:55;;;;;;;1999.90;999.90;;;;;;;15.80;74.46;101582.44;15667163;28;20044;-64
2021/07/21 01:57:51;;;;;;;1999.90;999.90;;;;;;;15.79;74.26;101594.03;15683266;28;20045;-65
2021/07/21 02:06:20;;;;;;;1999.90;999.90;;;;;;;15.85;73.64;101590.69;15613990;28;20048;-65
2021/07/21 02:14:04;;;;;;;1999.90;999.90;;;;;;;15.83;73.70;101587.38;15663638;28;20050;-65
2021/07/21 02:22:01;;;;;;;1999.90;999.90;;;;;;;15.71;75.19;101592.97;15680205;28;20041;-65
2021/07/21 02:29:35;;;;;;;1999.90;999.90;;;;;;;15.79;75.67;101596.84;15662969;28;20032;-65
2021/07/21 02:37:14;;;;;;;1999.90;999.90;;;;;;;16.06;75.12;101598.22;15679462;28;20437;-63
2021/07/21 02:44:52;;;;;;;1999.90;999.90;;;;;;;16.13;74.87;101590.81;15661804;28;20127;-63
2021/07/21 02:52:32;;;;;;;1999.90;999.90;;;;;;;16.26;74.94;101599.31;15678339;28;20060;-63
2021/07/21 03:00:25;;;;;;;1999.90;999.90;;;;;;;16.38;74.70;101613.41;15660624;28;20118;-65
2021/07/21 03:08:29;;;;;;;1999.90;999.90;;;;;;;16.47;74.70;101611.31;15678658;28;20379;-65
2021/07/21 03:16:07;;;;;;;1999.90;999.90;;;;;;;16.52;75.30;101621.50;15659888;28;20304;-64
2021/07/21 03:23:52;;;;;;;1999.90;999.90;;;;;;;16.67;75.46;101623.59;15660310;28;20523;-65
2021/07/21 03:39:54;;;;;;;1999.90;999.90;;;;;;;17.10;75.41;101622.19;15646925;28;20049;-65
2021/07/21 03:48:07;;;;;;;1999.90;999.90;;;;;;;17.29;75.30;101626.00;15646640;28;20501;-65
2021/07/21 03:56:04;;;;;;;1999.90;999.90;;;;;;;17.42;75.21;101632.47;15676182;28;20037;-64
2021/07/21 04:04:06;;;;;;;1999.90;999.90;;;;;;;17.57;74.37;101642.97;15658428;28;20047;-65
2021/07/21 04:11:43;;;;;;;1999.90;999.90;;;;;;;17.82;73.78;101648.53;15675733;28;20437;-65
2021/07/21 04:19:32;;;;;;;1999.90;999.90;;;;;;;18.05;73.15;101651.63;15658136;28;20120;-65
2021/07/21 04:27:19;;;;;;;1999.90;999.90;;;;;;;18.18;73.17;101654.00;15656719;28;20049;-64
2021/07/21 04:35:02;;;;;;;1999.90;999.90;;;;;;;18.23;73.06;101663.38;15656909;28;20045;-65
2021/07/21 04:42:58;;;;;;;1999.90;999.90;;;;;;;18.38;72.92;101676.72;15673426;28;20536;-65
2021/07/21 04:50:34;;;;;;;1999.90;999.90;;;;;;;18.35;72.29;101681.09;15684848;28;20087;-64
2021/07/21 04:58:20;;;;;;;1999.90;999.90;;;;;;;18.55;72.64;101678.34;15668595;28;20106;-65
2021/07/21 05:06:09;;;;;;;1999.90;999.90;;;;;;;18.66;71.92;101688.81;15667509;28;20037;-63
2021/07/21 05:13:53;;;;;;;1999.90;999.90;;;;;;;18.83;72.34;101698.09;15663552;28;20107;-64
2021/07/21 05:21:34;;;;;;;1999.90;999.90;;;;;;;18.76;73.07;101704.41;15662439;28;20145;-64
2021/07/21 05:29:15;;;;;;;1999.90;999.90;;;;;;;18.90;71.89;101718.06;15656204;28;20403;-64
2021/07/21 05:37:06;;;;;;;1999.90;999.90;;;;;;;18.78;72.25;101718.16;15674204;28;20616;-64
2021/07/21 05:44:54;;;;;;;1999.90;999.90;;;;;;;18.90;72.30;101716.06;15663940;28;20103;-62
2021/07/21 05:52:34;;;;;;;1999.90;999.90;;;;;;;19.08;71.95;101722.16;15664396;28;20044;-62
2021/07/21 06:00:14;;;;;;;1999.90;999.90;;;;;;;19.24;71.22;101722.94;15664016;28;20102;-65
2021/07/21 06:08:06;;;;;;;1999.90;999.90;;;;;;;19.44;70.26;101734.31;15664320;28;20037;-65
2021/07/21 06:16:37;;;;;;;1999.90;999.90;;;;;;;19.87;70.03;101742.59;15667371;28;20080;-64
2021/07/21 06:24:10;;;;;;;1999.90;999.90;;;;;;;20.13;69.57;101741.13;15645963;28;20585;-64
2021/07/21 06:31:55;;;;;;;1999.90;999.90;;;;;;;20.53;68.58;101752.06;15662100;28;20076;-65
2021/07/21 06:39:33;;;;;;;1999.90;999.90;;;;;;;21.15;67.75;101772.59;15661702;28;20044;-65
2021/07/21 06:47:22;;;;;;;1999.90;999.90;;;;;;;21.63;65.62;101772.16;15678912;28;20052;-63
2021/07/21 06:55:11;;;;;;;1999.90;999.90;;;;;;;21.79;65.07;101781.31;15678973;28;20124;-63
2021/07/21 07:03:06;;;;;;;1999.90;999.90;;;;;;;22.10;62.71;101786.66;15663923;28;20045;-64
2021/07/21 07:11:05;;;;;;;1999.90;999.90;;;;;;;22.70;61.40;101797.06;15677780;28;20033;-63
2021/07/21 07:18:57;;;;;;;1999.90;999.90;;;;;;;23.85;57.42;101806.22;15677291;28;20037;-63
2021/07/21 07:26:34;;;;;;;1999.90;999.90;;;;;;;23.53;59.11;101803.13;15677168;28;20044;-63
2021/07/21 07:34:08;;;;;;;1999.90;999.90;;;;;;;23.53;58.63;101808.81;15676686;28;20174;-64
2021/07/21 07:41:45;;;;;;;1999.90;999.90;;;;;;;22.96;59.27;101816.09;15676544;28;20051;-64
2021/07/21 07:49:31;;;;;;;;;;;;;;;;;;;;;
2021/07/21 07:57:36;;;;;;;1999.90;999.90;;;;;;;22.88;61.93;101811.53;15676817;28;20449;-64
2021/07/21 08:05:14;;;;;;;1999.90;999.90;;;;;;;23.03;60.55;101822.66;15676328;28;20128;-64
2021/07/21 08:12:48;;;;;;;1999.90;999.90;;;;;;;22.71;60.61;101818.63;15658703;28;20402;-64
2021/07/21 08:20:31;;;;;;;1999.90;999.90;;;;;;;23.06;61.54;101834.47;15661725;28;20114;-63
2021/07/21 08:28:14;;;;;;;1999.90;999.90;;;;;;;22.74;61.33;101826.41;15688309;28;20080;-62
2021/07/21 08:35:55;;;;;;;1999.90;999.90;;;;;;;22.81;59.67;101835.00;15689028;28;20037;-64
2021/07/21 08:43:43;;;;;;;1999.90;999.90;;;;;;;23.55;60.27;101840.59;15670608;28;20069;-65
2021/07/21 08:51:23;;;;;;;1999.90;999.90;;;;;;;23.58;58.11;101845.53;15689451;28;20037;-63
2021/07/21 08:59:05;;;;;;;1999.90;999.90;;;;;;;23.23;58.17;101846.00;15688075;28;20049;-63
2021/07/21 09:06:42;;;;;;;1999.90;999.90;;;;;;;23.80;56.95;101840.00;15669052;28;20593;-64
2021/07/21 09:14:28;;;;;;;1999.90;999.90;;;;;;;24.22;57.02;101838.59;15686213;28;20068;-63
2021/07/21 09:22:16;;;;;;;1999.90;999.90;;;;;;;24.18;54.86;101830.84;15667664;28;20045;-63
2021/07/21 09:29:53;;;;;;;1999.90;999.90;;;;;;;23.54;56.45;101843.81;15666799;28;20045;-65
2021/07/21 09:37:26;;;;;;;1999.90;999.90;;;;;;;23.41;56.03;101845.34;15683689;28;20045;-64
2021/07/21 09:45:31;;;;;;;1999.90;999.90;;;;;;;24.03;55.72;101834.81;15684249;28;20445;-63
2021/07/21 09:53:12;;;;;;;1999.90;999.90;;;;;;;23.46;54.15;101845.00;15682633;28;20048;-65
2021/07/21 10:00:46;;;;;;;1999.90;999.90;;;;;;;23.57;55.05;101849.56;15664441;28;20064;-63
2021/07/21 10:08:31;;;;;;;1999.90;999.90;;;;;;;24.54;56.27;101842.44;15681288;28;20045;-64
2021/07/21 10:16:18;;;;;;;1999.90;999.90;;;;;;;25.22;46.75;101834.88;15681532;28;20077;-64
2021/07/21 10:24:34;;;;;;;;;;;;;;;;;;;;;
2021/07/21 10:32:33;;;;;;;1999.90;999.90;;;;;;;25.20;46.81;101816.47;15667473;28;20099;-65
2021/07/21 10:40:14;;;;;;;1999.90;999.90;;;;;;;26.04;47.92;101822.50;15680626;28;20037;-62
2021/07/21 10:47:47;;;;;;;1999.90;999.90;;;;;;;26.36;46.68;101819.53;15679845;28;20041;-65
2021/07/21 11:04:10;;;;;;;1999.90;999.90;;;;;;;27.66;43.47;101824.03;15620203;28;20053;-61
2021/07/21 11:12:06;;;;;;;1999.90;999.90;;;;;;;26.23;46.66;101824.09;15650842;28;20107;-66
2021/07/21 11:19:44;;;;;;;1999.90;999.90;;;;;;;25.62;48.44;101821.34;15617118;28;20564;-66
2021/07/21 11:27:47;;;;;;;1999.90;999.90;;;;;;;26.25;44.88;101808.13;15598850;28;20041;-65
2021/07/21 11:35:43;;;;;;;1999.90;999.90;;;;;;;25.43;48.20;101813.19;15648002;28;20567;-64
2021/07/21 11:43:33;;;;;;;1999.90;999.90;;;;;;;24.92;50.15;101814.41;15659598;28;20494;-66
2021/07/21 11:51:11;;;;;;;1999.90;999.90;;;;;;;25.55;49.20;101819.34;15657038;28;20144;-65
2021/07/21 11:58:47;;;;;;;1999.90;999.90;;;;;;;25.12;49.90;101815.69;15642095;28;20116;-66
2021/07/21 12:06:24;;;;;;;1999.90;999.90;;;;;;;24.94;48.14;101817.66;15639018;28;20418;-64
2021/07/21 12:14:03;;;;;;;1999.90;999.90;;;;;;;25.15;47.86;101816.91;15659195;28;20053;-65
2021/07/21 12:21:37;;;;;;;1999.90;999.90;;;;;;;25.47;47.30;101819.75;15659069;28;20045;-64
2021/07/21 12:29:24;;;;;;;1999.90;999.90;;;;;;;24.79;49.52;101818.84;15676723;28;20045;-65
2021/07/21 12:36:57;;;;;;;1999.90;999.90;;;;;;;24.57;51.77;101821.63;15676636;28;20045;-66
2021/07/21 12:44:50;;;;;;;1999.90;999.90;;;;;;;24.25;52.31;101817.81;15676746;28;20073;-66
2021/07/21 12:52:27;;;;;;;1999.90;999.90;;;;;;;23.66;52.73;101822.81;15658736;28;20045;-66
2021/07/21 13:08:14;;;;;;;1999.90;999.90;;;;;;;24.05;53.90;101814.47;15661440;28;20461;-64
2021/07/21 13:16:10;;;;;;;1999.90;999.90;;;;;;;24.25;54.71;101820.69;15684484;28;20049;-65
2021/07/21 13:23:43;;;;;;;1999.90;999.90;;;;;;;25.48;50.41;101815.66;15606268;28;20045;-64
2021/07/21 13:31:20;;;;;;;1999.90;999.90;;;;;;;26.97;47.95;101812.25;15643534;28;20068;-66
2021/07/21 13:38:58;;;;;;;1999.90;999.90;;;;;;;26.77;47.00;101814.03;15682378;28;20049;-64
2021/07/21 13:46:36;;;;;;;1999.90;999.90;;;;;;;26.28;47.79;101815.91;15659071;28;20564;-64
2021/07/21 13:54:26;;;;;;;1999.90;999.90;;;;;;;25.65;49.61;101805.44;15682353;28;20048;-66
2021/07/21 14:02:01;;;;;;;1999.90;999.90;;;;;;;25.57;52.69;101799.72;15585940;28;20049;-65
2021/07/21 14:09:33;;;;;;;1999.90;999.90;;;;;;;24.81;50.83;101805.81;15619295;28;20049;-65
2021/07/21 14:17:35;;;;;;;1999.90;999.90;;;;;;;24.73;52.06;101801.31;15600895;28;20084;-61
2021/07/21 14:25:31;;;;;;;1999.90;999.90;;;;;;;24.13;51.53;101799.84;15601614;28;20048;-65
2021/07/21 14:33:05;;;;;;;1999.90;999.90;;;;;;;24.55;54.16;101801.25;15592361;28;20065;-65
2021/07/21 14:48:57;;;;;;;1999.90;999.90;;;;;;;24.75;53.57;101793.16;15616989;28;20502;-64
2021/07/21 14:56:36;;;;;;;1999.90;999.90;;;;;;;24.79;53.28;101784.59;15635745;28;20044;-64
2021/07/21 15:04:16;;;;;;;1999.90;999.90;;;;;;;24.58;53.19;101791.06;15682152;28;20041;-63
2021/07/21 15:11:51;;;;;;;1999.90;999.90;;;;;;;24.63;53.09;101794.34;15681055;28;20056;-64
2021/07/21 15:19:32;;;;;;;1999.90;999.90;;;;;;;24.47;54.15;101791.84;15679411;28;20080;-64
2021/07/21 15:27:16;;;;;;;1999.90;999.90;;;;;;;24.18;54.44;101792.97;15678867;28;20128;-65
2021/07/21 15:34:53;;;;;;;1999.90;999.90;;;;;;;23.94;54.68;101787.94;15658674;28;20119;-65
2021/07/21 15:42:47;;;;;;;1999.90;999.90;;;;;;;23.93;53.98;101798.53;15677573;28;20041;-64
2021/07/21 15:50:50;;;;;;;1999.90;999.90;;;;;;;23.89;54.83;101786.31;15661887;28;20124;-65
2021/07/21 16:06:36;;;;;;;1999.90;999.90;;;;;;;24.03;54.34;101774.16;15656545;28;20475;-64
2021/07/21 16:14:55;;;;;;;;;;;;;;;;;;;;;
2021/07/21 16:22:35;;;;;;;1999.90;999.90;;;;;;;24.43;53.60;101771.06;15675586;28;20647;-65
2021/07/21 16:30:09;;;;;;;1999.90;999.90;;;;;;;24.37;53.92;101763.28;15676520;28;20049;-65
2021/07/21 16:37:45;;;;;;;1999.90;999.90;;;;;;;24.42;54.82;101769.44;15675713;28;20041;-65
2021/07/21 16:45:21;;;;;;;1999.90;999.90;;;;;;;24.55;54.40;101760.50;15668180;28;20060;-64
2021/07/21 16:53:02;;;;;;;1999.90;999.90;;;;;;;24.51;52.95;101753.97;15680540;28;20131;-65
2021/07/21 17:00:36;;;;;;;1999.90;999.90;;;;;;;24.62;54.11;101758.50;15685831;28;20045;-65
2021/07/21 17:08:14;;;;;;;1999.90;999.90;;;;;;;24.26;54.17;101762.41;15648773;28;20049;-64
2021/07/21 17:15:46;;;;;;;1999.90;999.90;;;;;;;24.12;56.36;101766.84;15625861;28;20070;-64
2021/07/21 17:23:49;;;;;;;1999.90;999.90;;;;;;;24.02;56.18;101766.81;15629105;28;20080;-63
2021/07/21 17:31:38;;;;;;;1999.90;999.90;;;;;;;23.97;57.13;101772.88;15677015;28;20099;-62
2021/07/21 17:39:24;;;;;;;1999.90;999.90;;;;;;;23.90;58.02;101776.53;15686730;28;20051;-64
2021/07/21 17:46:59;;;;;;;;;;;;;;;23.68;57.18;101771.94;15685555;28;20045;-63
2021/07/21 17:54:40;;;;;;;1999.90;999.90;;;;;;;23.46;58.29;101790.88;15680917;28;19925;-64
2021/07/21 18:02:16;;;;;;;1999.90;999.90;;;;;;;22.83;59.79;101807.00;15622083;28;20124;-63
2021/07/21 18:09:55;;;;;;;1999.90;999.90;;;;;;;22.08;63.69;101808.94;15621048;28;20041;-63
2021/07/21 18:17:30;;;;;;;1999.90;999.90;;;;;;;22.29;63.80;101805.53;15623409;28;20040;-64
2021/07/21 18:25:07;;;;;;;1999.90;999.90;;;;;;;22.45;62.38;101802.50;15635716;28;20510;-64
2021/07/21 18:32:46;;;;;;;1999.90;999.90;;;;;;;22.47;63.25;101802.91;15648374;28;20040;-64
2021/07/21 18:40:35;;;;;;;1999.90;999.90;;;;;;;22.52;64.11;101793.25;15681846;28;20045;-63
2021/07/21 18:48:11;;;;;;;1999.90;999.90;;;;;;;22.41;62.95;101788.25;15645845;28;20071;-64
2021/07/21 18:55:54;;;;;;;1999.90;999.90;;;;;;;22.43;63.11;101790.69;15680018;28;20053;-63
2021/07/21 19:03:26;;;;;;;1999.90;999.90;;;;;;;22.37;63.40;101790.22;15679032;28;20565;-63
2021/07/21 19:11:07;;;;;;;1999.90;999.90;;;;;;;22.35;63.19;101789.78;15661842;28;20045;-63
2021/07/21 19:18:39;;;;;;;1999.90;999.90;;;;;;;22.31;64.21;101797.47;15677725;28;20045;-63
2021/07/21 19:26:13;;;;;;;1999.90;999.90;;;;;;;22.21;63.58;101797.34;15658488;28;20042;-61
2021/07/21 19:33:55;;;;;;;1999.90;999.90;;;;;;;22.19;63.54;101811.91;15639795;28;20411;-64
2021/07/21 19:41:29;;;;;;;1999.90;999.90;;;;;;;22.23;63.08;101804.25;15676024;28;20557;-64
2021/07/21 19:49:01;;;;;;;1999.90;999.90;;;;;;;22.12;63.87;101806.97;15675430;28;20041;-65
2021/07/21 20:04:43;;;;;;;1999.90;999.90;;;;;;;21.59;65.90;101797.66;15676895;28;20505;-63
2021/07/21 20:12:17;;;;;;;1999.90;999.90;;;;;;;21.86;66.52;101798.44;15651245;28;20056;-64
2021/07/21 20:19:51;;;;;;;1999.90;999.90;;;;;;;21.68;66.84;101797.41;15683917;28;20045;-65
2021/07/21 20:27:24;;;;;;;1999.90;999.90;;;;;;;21.52;65.91;101795.53;15688172;28;20051;-63
2021/07/21 20:34:57;;;;;;;1999.90;999.90;;;;;;;21.37;66.67;101809.91;15633788;28;20061;-66
2021/07/21 20:42:30;;;;;;;1999.90;999.90;;;;;;;21.45;65.84;101795.41;15633136;28;20053;-65
2021/07/21 20:50:03;;;;;;;1999.90;999.90;;;;;;;21.64;65.12;101803.00;15677327;28;20425;-65
2021/07/21 20:57:40;;;;;;;1999.90;999.90;;;;;;;21.45;65.71;101798.25;15658223;28;20423;-62
2021/07/21 21:05:15;;;;;;;1999.90;999.90;;;;;;;21.70;66.12;101797.81;15628633;28;20462;-62
2021/07/21 21:12:56;;;;;;;1999.90;999.90;;;;;;;21.61;65.64;101795.25;15678481;28;20045;-63
2021/07/21 21:20:36;;;;;;;1999.90;999.90;;;;;;;21.43;66.41;101794.97;15678709;28;20041;-63
2021/07/21 21:28:12;;;;;;;1999.90;999.90;;;;;;;21.58;67.30;101791.16;15666979;28;20494;-63
2021/07/21 21:35:49;;;;;;;1999.90;999.90;;;;;;;21.63;66.94;101786.34;15653190;28;20067;-63
2021/07/21 21:43:23;;;;;;;1999.90;999.90;;;;;;;21.65;68.19;101784.75;15669985;28;20064;-63
2021/07/21 21:50:59;;;;;;;1999.90;999.90;;;;;;;21.60;68.18;101794.44;15662250;28;21517;-63
2021/07/21 21:58:34;;;;;;;1999.90;999.90;;;;;;;21.58;68.55;101793.19;15684300;28;20041;-63
2021/07/21 22:06:06;;;;;;;1999.90;999.90;;;;;;;21.44;69.06;101801.47;15671910;28;20045;-63
2021/07/21 22:13:46;;;;;;;1999.90;999.90;;;;;;;21.55;69.84;101796.78;15672091;28;20524;-63
2021/07/21 22:21:19;;;;;;;1999.90;999.90;;;;;;;21.38;69.49;101806.69;15648985;28;20037;-62
2021/07/21 22:28:57;;;;;;;1999.90;999.90;;;;;;;21.44;69.37;101796.63;15666288;28;20619;-62
2021/07/21 22:36:38;;;;;;;1999.90;999.90;;;;;;;21.40;69.68;101806.28;15673848;28;20202;-63
2021/07/21 22:44:12;;;;;;;1999.90;999.90;;;;;;;21.45;69.31;101803.09;15678845;28;20041;-63
2021/07/21 22:51:45;;;;;;;1999.90;999.90;;;;;;;21.50;68.90;101805.63;15661560;28;20045;-62
2021/07/21 22:59:26;;;;;;;1999.90;999.90;;;;;;;21.39;69.92;101799.78;15641198;28;20048;-62
2021/07/21 23:07:36;;;;;;;1999.90;999.90;;;;;;;21.41;70.28;101793.72;15661663;28;20493;-63
2021/07/21 23:15:14;;;;;;;1999.90;999.90;;;;;;;21.35;69.84;101783.88;15667527;28;20047;-62
2021/07/21 23:22:56;;;;;;;1999.90;999.90;;;;;;;21.39;69.21;101788.44;15640951;28;20041;-63
2021/07/21 23:30:49;;;;;;;1999.90;999.90;;;;;;;21.25;70.48;101780.47;15659045;28;20490;-63
2021/07/21 23:38:31;;;;;;;1999.90;999.90;;;;;;;21.29;70.81;101781.38;15677077;28;20044;-63
2021/07/21 23:46:08;;;;;;;1999.90;999.90;;;;;;;21.14;70.54;101785.13;15624393;28;20406;-61
2021/07/21 23:54:00;;;;;;;1999.90;999.90;;;;;;;21.22;70.60;101774.72;15677206;28;20056;-62
